createdAt,value
2023-03-01T00:07:14.206Z,-1.05
2023-03-01T00:17:14.207Z,-1.15
2023-03-01T00:27:14.133Z,-1.22
2023-03-01T00:37:14.246Z,-1.27
2023-03-01T00:47:14.719Z,-1.34
2023-03-01T00:57:15.178Z,-1.40
2023-03-01T01:07:15.245Z,-1.46
2023-03-01T01:17:15.276Z,-1.52
2023-03-01T01:27:15.294Z,-1.57
2023-03-01T01:37:15.222Z,-1.66
2023-03-01T01:47:15.494Z,-1.76
2023-03-01T01:57:15.235Z,-1.73
2023-03-01T02:07:15.447Z,-1.55
2023-03-01T02:17:15.400Z,-1.35
2023-03-01T02:27:15.304Z,-1.14
2023-03-01T02:37:16.794Z,-0.96
2023-03-01T02:47:17.598Z,-0.84
2023-03-01T02:57:17.717Z,-0.82
2023-03-01T03:07:19.369Z,-0.85
2023-03-01T03:17:19.434Z,-0.89
2023-03-01T03:27:19.341Z,-0.94
2023-03-01T03:37:38.880Z,-0.98
2023-03-01T03:47:39.381Z,-0.98
2023-03-01T03:57:39.425Z,-0.95
2023-03-01T04:07:39.400Z,-0.89
2023-03-01T04:17:40.020Z,-0.85
2023-03-01T04:27:46.509Z,-0.85
2023-03-01T04:37:47.066Z,-0.85
2023-03-01T04:47:47.531Z,-0.81
2023-03-01T04:57:47.521Z,-0.79
2023-03-01T05:07:47.493Z,-0.78
2023-03-01T05:17:47.498Z,-0.77
2023-03-01T05:27:47.585Z,-0.75
2023-03-01T05:37:47.771Z,-0.72
2023-03-01T05:47:47.653Z,-0.72
2023-03-01T05:57:47.551Z,-0.72
2023-03-01T06:08:00.262Z,-0.70
2023-03-01T06:18:00.735Z,-0.67
2023-03-01T06:28:00.715Z,-0.60
2023-03-01T06:38:00.738Z,-0.47
2023-03-01T06:48:00.615Z,-0.30
2023-03-01T06:58:00.718Z,-0.07
2023-03-01T07:08:00.576Z,0.22
2023-03-01T07:18:00.563Z,0.54
2023-03-01T07:28:00.719Z,0.87
2023-03-01T07:38:00.639Z,1.21
2023-03-01T07:48:00.705Z,1.55
2023-03-01T07:58:00.834Z,1.86
2023-03-01T08:08:00.788Z,2.13
2023-03-01T08:18:01.335Z,2.37
2023-03-01T08:28:01.655Z,2.61
2023-03-01T08:38:03.976Z,2.97
2023-03-01T08:48:23.060Z,3.56
2023-03-01T08:58:28.767Z,4.71
2023-03-01T09:08:28.774Z,6.59
2023-03-01T09:18:28.803Z,8.63
2023-03-01T09:28:30.327Z,10.43
2023-03-01T09:38:30.851Z,11.67
2023-03-01T09:48:30.760Z,12.21
2023-03-01T09:58:30.823Z,12.21
2023-03-01T10:08:31.695Z,11.92
2023-03-01T10:18:33.176Z,11.39
2023-03-01T10:28:32.825Z,10.77
2023-03-01T10:38:33.140Z,10.12
2023-03-01T10:48:33.006Z,9.55
2023-03-01T10:58:52.302Z,9.13
2023-03-01T11:08:54.446Z,8.85
2023-03-01T11:18:58.080Z,8.65
2023-03-01T11:28:58.617Z,8.46
2023-03-01T11:38:59.035Z,8.27
2023-03-01T11:48:59.872Z,8.11
2023-03-01T11:58:59.958Z,8.05
2023-03-01T12:09:02.941Z,8.04
2023-03-01T12:19:03.008Z,8.01
2023-03-01T12:29:03.101Z,7.97
2023-03-01T12:39:03.011Z,7.97
2023-03-01T12:49:02.977Z,7.97
2023-03-01T12:59:03.116Z,7.98
2023-03-01T13:09:03.027Z,8.01
2023-03-01T13:19:22.426Z,8.02
2023-03-01T13:29:23.184Z,8.03
2023-03-01T13:39:23.096Z,8.08
2023-03-01T13:49:23.048Z,8.13
2023-03-01T13:59:23.148Z,8.16
2023-03-01T14:09:24.590Z,8.19
2023-03-01T14:19:33.296Z,8.20
2023-03-01T14:29:28.504Z,8.18
2023-03-01T14:39:31.130Z,8.14
2023-03-01T14:49:31.125Z,8.08
2023-03-01T14:59:31.190Z,8.05
2023-03-01T15:09:31.137Z,8.01
2023-03-01T15:19:31.186Z,7.96
2023-03-01T15:29:31.390Z,7.91
2023-03-01T15:39:31.184Z,7.86
2023-03-01T15:49:31.182Z,7.79
2023-03-01T15:59:31.244Z,7.71
2023-03-01T16:09:31.231Z,7.61
2023-03-01T16:19:31.218Z,7.48
2023-03-01T16:29:31.305Z,7.31
2023-03-01T16:39:31.276Z,7.13
2023-03-01T16:49:31.253Z,6.93
2023-03-01T16:59:31.459Z,6.71
2023-03-01T17:09:31.641Z,6.46
2023-03-01T17:19:32.584Z,6.19
2023-03-01T17:29:32.416Z,5.92
2023-03-01T17:39:34.330Z,5.67
2023-03-01T17:49:34.382Z,5.51
2023-03-01T17:59:34.426Z,5.38
2023-03-01T18:09:34.354Z,5.26
2023-03-01T18:19:34.518Z,5.14
2023-03-01T18:29:34.482Z,5.03
2023-03-01T18:39:34.418Z,4.93
2023-03-01T18:49:34.452Z,4.85
2023-03-01T18:59:35.262Z,4.79
2023-03-01T19:09:35.569Z,4.68
2023-03-01T19:19:35.914Z,4.52
2023-03-01T19:29:36.446Z,4.34
2023-03-01T19:39:36.490Z,4.24
2023-03-01T19:49:37.420Z,4.16
2023-03-01T19:59:37.499Z,4.07
2023-03-01T20:09:37.666Z,3.95
2023-03-01T20:19:37.836Z,3.84
2023-03-01T20:29:37.593Z,3.78
2023-03-01T20:39:37.574Z,3.73
2023-03-01T20:49:37.573Z,3.66
2023-03-01T20:59:37.724Z,3.59
2023-03-01T21:09:37.664Z,3.45
2023-03-01T21:19:37.920Z,3.27
2023-03-01T21:29:37.584Z,3.13
2023-03-01T21:39:37.657Z,2.94
2023-03-01T21:49:37.722Z,2.74
2023-03-01T21:59:37.625Z,2.61
2023-03-01T22:09:38.511Z,2.52
2023-03-01T22:19:38.684Z,2.42
2023-03-01T22:29:41.610Z,2.31
2023-03-01T22:39:41.704Z,2.22
2023-03-01T22:49:42.135Z,2.18
2023-03-01T22:59:42.766Z,2.12
2023-03-01T23:09:42.737Z,1.97
2023-03-01T23:19:42.796Z,1.81
2023-03-01T23:29:42.792Z,1.67
2023-03-01T23:39:42.760Z,1.52
2023-03-01T23:49:42.888Z,1.38
2023-03-01T23:59:43.286Z,1.27
